Time;durP1;ratioP1;P1;durP2;ratioP2;P2;SDS_P1;SDS_P2;PMS_P1;PMS_P2;Temp;Humidity;BMP_temperature;BMP_pressure;BME280_temperature;BME280_humidity;BME280_pressure;Samples;Min_cycle;Max_cycle;Signal;HPM_P1;HPM_P2
2022/09/18 00:02:44;;;;;;;11.37;4.63;;;11.10;99.90;;;;;;2614892;39;20769;-72
2022/09/18 00:08:32;;;;;;;8.63;4.10;;;11.00;99.90;;;;;;2614485;54;20124;-71
2022/09/18 00:14:21;;;;;;;8.00;3.90;;;11.00;99.90;;;;;;2613188;54;20138;-72
2022/09/18 00:20:09;;;;;;;11.43;4.80;;;11.00;99.90;;;;;;2614297;54;20382;-71
2022/09/18 00:22:54;;;;;;;10.10;4.77;;;10.90;99.90;;;;;;2613865;54;20862;-72
2022/09/18 00:25:19;;;;;;;8.57;4.23;;;10.90;99.90;;;;;;2614295;54;20429;-73
2022/09/18 00:31:19;;;;;;;9.83;4.87;;;10.90;99.90;;;;;;2614664;54;20403;-72
2022/09/18 00:37:07;;;;;;;7.60;4.63;;;11.00;99.90;;;;;;2615082;46;20401;-72
2022/09/18 00:42:55;;;;;;;11.77;5.97;;;10.90;99.90;;;;;;2614833;54;20134;-73
2022/09/18 00:48:53;;;;;;;8.80;5.80;;;10.90;99.90;;;;;;2614719;54;20155;-72
2022/09/18 00:55:10;;;;;;;8.63;6.63;;;11.00;99.90;;;;;;2611639;46;20402;-71
2022/09/18 01:00:57;;;;;;;9.13;5.97;;;11.00;99.90;;;;;;2614143;39;20780;-74
2022/09/18 01:07:00;;;;;;;14.77;5.67;;;11.00;99.90;;;;;;2613826;54;20165;-75
2022/09/18 01:26:23;;;;;;;7.57;5.40;;;11.10;99.90;;;;;;2610727;39;21350;-74
2022/09/18 01:35:52;;;;;;;8.18;4.95;;;11.10;99.90;;;;;;2614002;54;20942;-77
2022/09/18 01:41:49;;;;;;;9.50;5.10;;;11.10;99.90;;;;;;2614262;54;20513;-73
2022/09/18 01:58:35;;;;;;;12.10;4.97;;;11.10;99.90;;;;;;2613986;39;20485;-75
2022/09/18 02:04:28;;;;;;;8.00;4.37;;;11.10;99.90;;;;;;2614347;54;20141;-75
2022/09/18 02:10:17;;;;;;;9.60;4.50;;;11.20;99.90;;;;;;2612830;54;20674;-75
2022/09/18 02:16:09;;;;;;;8.43;4.00;;;11.20;99.90;;;;;;2614617;54;20374;-74
2022/09/18 02:35:55;;;;;;;7.93;4.90;;;11.10;99.90;;;;;;2615496;54;20394;-74
2022/09/18 02:48:49;;;;;;;11.13;6.30;;;11.20;99.90;;;;;;2615509;54;20484;-71
2022/09/18 03:01:06;;;;;;;10.23;6.00;;;11.20;99.90;;;;;;2615191;54;20239;-73
2022/09/18 03:06:54;;;;;;;9.93;6.70;;;11.20;99.90;;;;;;2614292;54;20473;-73
2022/09/18 03:12:41;;;;;;;10.90;6.67;;;11.20;99.90;;;;;;2615819;39;20537;-73
2022/09/18 03:18:29;;;;;;;10.97;7.30;;;11.10;99.90;;;;;;2615114;54;20157;-72
2022/09/18 03:24:16;;;;;;;12.70;7.83;;;11.10;99.90;;;;;;2613383;54;20150;-72
2022/09/18 03:30:06;;;;;;;10.63;6.73;;;11.20;99.90;;;;;;2614516;54;20244;-73
2022/09/18 03:35:53;;;;;;;23.40;7.73;;;11.20;99.90;;;;;;2612892;54;20410;-73
2022/09/18 03:41:41;;;;;;;10.00;7.20;;;11.20;99.90;;;;;;2614140;54;20137;-72
2022/09/18 03:47:29;;;;;;;13.17;7.67;;;11.10;99.90;;;;;;2615468;54;20130;-73
2022/09/18 03:53:16;;;;;;;11.27;7.30;;;11.10;99.90;;;;;;2614700;54;20122;-73
2022/09/18 03:59:04;;;;;;;14.23;7.77;;;11.10;99.90;;;;;;2614679;54;20146;-74
2022/09/18 04:04:52;;;;;;;13.00;6.80;;;11.10;99.90;;;;;;2615024;54;20133;-73
2022/09/18 04:10:40;;;;;;;11.83;7.40;;;11.10;99.90;;;;;;2614425;54;20387;-72
2022/09/18 04:16:28;;;;;;;15.67;8.50;;;11.10;99.90;;;;;;2614053;54;20122;-73
2022/09/18 04:22:16;;;;;;;13.33;7.73;;;11.10;99.90;;;;;;2613813;54;20165;-73
2022/09/18 04:28:03;;;;;;;12.83;8.43;;;11.10;99.90;;;;;;2613824;54;20162;-74
2022/09/18 04:37:13;;;;;;;18.42;8.15;;;11.00;99.90;;;;;;2613996;54;20193;-72
2022/09/18 04:43:01;;;;;;;15.95;7.57;;;11.00;99.90;;;;;;2614140;54;20134;-73
2022/09/18 04:48:49;;;;;;;12.20;6.40;;;11.00;99.90;;;;;;2613573;54;20162;-72
2022/09/18 04:54:37;;;;;;;19.77;7.50;;;11.00;99.90;;;;;;2614262;54;20919;-72
2022/09/18 05:00:25;;;;;;;7.70;5.30;;;11.00;99.90;;;;;;2613394;39;20570;-72
2022/09/18 05:06:12;;;;;;;8.70;5.00;;;10.90;99.90;;;;;;2615227;54;20853;-74
2022/09/18 05:12:00;;;;;;;6.35;4.22;;;11.00;99.90;;;;;;2615807;54;20422;-73
2022/09/18 05:24:02;;;;;;;9.37;4.87;;;11.00;99.90;;;;;;2615105;54;20416;-73
2022/09/18 05:29:50;;;;;;;8.57;5.60;;;11.00;99.90;;;;;;2613939;54;20134;-73
2022/09/18 05:35:38;;;;;;;6.33;3.87;;;11.10;99.90;;;;;;2615021;54;20150;-71
2022/09/18 05:44:48;;;;;;;11.07;4.87;;;11.00;99.90;;;;;;2615150;54;20354;-72
2022/09/18 05:50:37;;;;;;;8.53;5.60;;;11.10;99.90;;;;;;2615332;54;20250;-71
2022/09/18 05:56:26;;;;;;;14.83;7.40;;;11.10;99.90;;;;;;2613840;54;20342;-72
2022/09/18 06:02:13;;;;;;;14.43;9.90;;;11.10;99.90;;;;;;2615201;54;20135;-72
2022/09/18 06:08:03;;;;;;;22.03;11.10;;;11.20;99.90;;;;;;2614842;54;20143;-71
2022/09/18 06:13:51;;;;;;;22.70;10.27;;;11.20;99.90;;;;;;2613110;54;20152;-72
2022/09/18 06:19:39;;;;;;;13.33;9.23;;;11.20;99.90;;;;;;2613696;54;20161;-71
2022/09/18 06:25:28;;;;;;;18.30;10.50;;;11.20;99.90;;;;;;2615322;54;20142;-73
2022/09/18 06:31:15;;;;;;;13.67;10.67;;;11.20;99.90;;;;;;2614133;54;21097;-75
2022/09/18 06:37:03;;;;;;;20.85;11.05;;;11.30;99.90;;;;;;2614131;39;20837;-71
2022/09/18 06:40:14;;;;;;;13.20;9.40;;;11.40;99.90;;;;;;2611980;54;20147;-72
2022/09/18 06:42:39;;;;;;;19.30;10.30;;;11.40;99.90;;;;;;2613276;54;20241;-73
2022/09/18 06:48:30;;;;;;;10.27;8.70;;;11.50;99.90;;;;;;2612793;54;20159;-72
2022/09/18 06:54:18;;;;;;;12.30;7.13;;;11.40;99.90;;;;;;2613448;54;20402;-73
2022/09/18 07:00:06;;;;;;;13.37;7.53;;;11.50;99.90;;;;;;2613451;54;20834;-72
2022/09/18 07:05:54;;;;;;;14.52;8.13;;;11.60;99.90;;;;;;2615601;31;20920;-75
2022/09/18 07:11:42;;;;;;;12.67;8.00;;;11.60;99.90;;;;;;2614551;54;20698;-72
2022/09/18 07:17:29;;;;;;;11.53;7.40;;;11.60;99.90;;;;;;2614612;54;20434;-73
2022/09/18 07:23:17;;;;;;;10.50;7.63;;;11.60;99.90;;;;;;2614860;54;20122;-72
2022/09/18 07:29:05;;;;;;;11.10;7.10;;;11.70;99.90;;;;;;2613074;54;20382;-74
2022/09/18 07:34:52;;;;;;;10.80;6.73;;;11.70;99.90;;;;;;2613045;54;20138;-72
2022/09/18 07:44:46;;;;;;;7.53;4.80;;;11.70;99.90;;;;;;2613186;39;21250;-71
2022/09/18 07:50:33;;;;;;;6.73;3.37;;;11.80;99.90;;;;;;2614922;54;20962;-74
2022/09/18 07:56:21;;;;;;;6.73;2.63;;;11.90;99.90;;;;;;2614791;54;20125;-71
2022/09/18 08:02:10;;;;;;;5.00;2.77;;;11.90;99.90;;;;;;2612799;54;20150;-73
2022/09/18 08:08:11;;;;;;;7.55;2.85;;;12.00;99.90;;;;;;2613439;54;21335;-72
2022/09/18 08:13:59;;;;;;;6.67;2.40;;;12.00;99.90;;;;;;2614340;54;20395;-71
2022/09/18 08:19:46;;;;;;;3.83;1.77;;;11.90;99.90;;;;;;2614477;54;20170;-72
2022/09/18 08:25:36;;;;;;;8.90;2.87;;;12.00;99.90;;;;;;2612731;54;20138;-73
2022/09/18 08:31:24;;;;;;;4.93;2.25;;;12.00;99.90;;;;;;2613437;54;21202;-72
2022/09/18 08:37:11;;;;;;;10.77;2.77;;;12.00;99.90;;;;;;2614587;54;20142;-72
2022/09/18 08:40:19;;;;;;;7.77;3.33;;;12.10;99.90;;;;;;2614062;47;20427;-72
2022/09/18 08:43:08;;;;;;;4.90;3.80;;;12.20;99.90;;;;;;2614606;54;21257;-73
2022/09/18 08:55:28;;;;;;;7.77;3.90;;;12.20;99.90;;;;;;2614218;54;20596;-70
2022/09/18 09:01:18;;;;;;;13.80;5.03;;;12.00;99.90;;;;;;2613219;54;20506;-73
2022/09/18 09:26:32;;;;;;;10.33;3.57;;;11.90;99.90;;;;;;2613924;54;20391;-71
2022/09/18 09:32:32;;;;;;;6.13;5.50;;;11.70;99.90;;;;;;2612044;54;20929;-73
2022/09/18 09:52:04;;;;;;;4.00;3.30;;;11.00;99.90;;;;;;2614424;39;20849;-72
2022/09/18 09:58:12;;;;;;;3.40;2.40;;;11.00;99.90;;;;;;2611175;31;20808;-74
2022/09/18 10:17:04;;;;;;;4.93;2.13;;;11.00;99.90;;;;;;2615735;54;20415;-73
2022/09/18 10:22:51;;;;;;;2.70;1.90;;;11.10;99.90;;;;;;2613868;54;20404;-72
2022/09/18 10:28:39;;;;;;;3.50;2.40;;;11.30;99.90;;;;;;2614502;54;20371;-72
2022/09/18 10:34:36;;;;;;;2.60;2.00;;;11.50;99.90;;;;;;2612266;54;20230;-71
2022/09/18 10:40:31;;;;;;;5.63;2.63;;;11.80;99.90;;;;;;2614153;54;20374;-73
2022/09/18 10:46:31;;;;;;;3.80;2.27;;;12.00;99.90;;;;;;2614483;54;20517;-73
2022/09/18 11:02:19;;;;;;;2.43;1.60;;;12.10;99.90;;;;;;2613810;54;20963;-72
2022/09/18 11:14:25;;;;;;;2.73;1.63;;;12.40;99.90;;;;;;2613358;54;20414;-73
2022/09/18 11:26:58;;;;;;;4.00;2.40;;;12.50;99.90;;;;;;2614185;54;20250;-71
2022/09/18 11:32:47;;;;;;;3.93;2.07;;;12.50;99.90;;;;;;2615136;54;20353;-72
2022/09/18 11:38:41;;;;;;;3.67;1.70;;;12.50;99.90;;;;;;2614575;54;20399;-73
2022/09/18 11:44:33;;;;;;;7.93;2.30;;;12.40;99.90;;;;;;2614709;54;20410;-73
2022/09/18 11:50:23;;;;;;;4.90;2.10;;;12.50;99.90;;;;;;2614656;54;20386;-73
2022/09/18 11:59:44;;;;;;;5.83;2.70;;;12.40;99.90;;;;;;2613133;54;20385;-73
2022/09/18 12:05:57;;;;;;;4.93;2.47;;;12.60;99.90;;;;;;2612448;54;20426;-72
2022/09/18 12:18:28;;;;;;;6.00;4.03;;;12.80;99.90;;;;;;2612543;54;20399;-72
2022/09/18 12:24:16;;;;;;;8.10;4.07;;;12.90;99.90;;;;;;2612353;54;20456;-73
2022/09/18 12:30:11;;;;;;;7.13;3.60;;;12.90;99.90;;;;;;2613767;54;20968;-74
2022/09/18 12:36:26;;;;;;;3.93;3.53;;;12.80;99.90;;;;;;2612243;46;20383;-72
2022/09/18 12:48:53;;;;;;;5.75;3.13;;;12.70;99.90;;;;;;2614469;31;20874;-73
2022/09/18 12:54:50;;;;;;;6.30;2.90;;;12.60;99.90;;;;;;2613856;54;20488;-74
2022/09/18 13:00:40;;;;;;;7.73;3.57;;;12.40;99.90;;;;;;2612310;54;21028;-73
2022/09/18 13:03:58;;;;;;;6.73;3.33;;;12.40;99.90;;;;;;2611442;54;20419;-73
2022/09/18 13:22:23;;;;;;;4.17;2.20;;;12.60;99.90;;;;;;2613211;39;20759;-78
2022/09/18 13:28:15;;;;;;;2.97;1.93;;;12.50;99.90;;;;;;2615081;54;20360;-71
2022/09/18 13:40:34;;;;;;;7.30;2.43;;;12.10;99.90;;;;;;2613335;54;20386;-73
2022/09/18 13:46:40;;;;;;;4.57;2.80;;;12.00;99.90;;;;;;2614751;54;20127;-72
2022/09/18 13:52:33;;;;;;;4.23;2.17;;;11.90;99.90;;;;;;2615137;54;20133;-71
2022/09/18 13:58:30;;;;;;;1.83;1.07;;;11.70;99.90;;;;;;2615073;54;20370;-73
2022/09/18 14:11:07;;;;;;;5.40;1.73;;;11.20;99.90;;;;;;2613144;54;20450;-72
2022/09/18 14:23:35;;;;;;;3.50;1.63;;;10.90;99.90;;;;;;2612692;54;20382;-73
2022/09/18 14:29:27;;;;;;;4.63;1.93;;;10.60;99.90;;;;;;2612176;54;20137;-75
2022/09/18 14:41:34;;;;;;;3.10;1.50;;;10.60;99.90;;;;;;2613789;54;20413;-72
2022/09/18 14:47:25;;;;;;;3.30;1.90;;;10.70;99.90;;;;;;2614062;54;20386;-71
2022/09/18 14:53:23;;;;;;;3.33;1.67;;;10.70;99.90;;;;;;2614246;54;20134;-72
2022/09/18 14:59:16;;;;;;;3.70;3.30;;;10.70;99.90;;;;;;2614584;54;20385;-72
2022/09/18 15:05:11;;;;;;;3.80;2.67;;;10.70;99.90;;;;;;2614102;54;20384;-75
2022/09/18 15:10:59;;;;;;;6.07;2.70;;;10.60;99.90;;;;;;2614489;54;20405;-73
2022/09/18 15:16:58;;;;;;;6.00;2.80;;;10.70;99.90;;;;;;2612085;54;20246;-73
2022/09/18 15:22:47;;;;;;;4.25;2.05;;;10.70;99.90;;;;;;2613600;54;20724;-72
2022/09/18 15:28:36;;;;;;;6.77;2.70;;;10.70;99.90;;;;;;2613865;54;20818;-73
2022/09/18 15:34:28;;;;;;;9.10;2.80;;;10.60;99.90;;;;;;2614400;39;21174;-71
2022/09/18 15:40:18;;;;;;;5.20;3.27;;;10.50;99.90;;;;;;2614712;54;20149;-74
2022/09/18 15:52:42;;;;;;;5.90;4.20;;;10.50;99.90;;;;;;2614372;54;20406;-73
2022/09/18 15:58:43;;;;;;;7.20;3.23;;;10.50;99.90;;;;;;2614086;54;20418;-73
2022/09/18 16:04:32;;;;;;;3.70;2.60;;;10.50;99.90;;;;;;2613288;39;20799;-73
2022/09/18 16:07:44;;;;;;;4.90;1.93;;;10.50;99.90;;;;;;2613744;54;20435;-73
2022/09/18 16:13:37;;;;;;;5.80;2.90;;;10.50;99.90;;;;;;2612992;54;20162;-74
2022/09/18 16:19:25;;;;;;;4.83;2.93;;;10.40;99.90;;;;;;2613188;54;20387;-71
2022/09/18 16:25:20;;;;;;;6.20;2.50;;;10.40;99.90;;;;;;2614495;54;20423;-74
2022/09/18 16:31:11;;;;;;;4.63;2.57;;;10.40;99.90;;;;;;2614101;54;20432;-72
2022/09/18 16:36:59;;;;;;;10.37;2.20;;;10.40;99.90;;;;;;2613851;54;20383;-72
2022/09/18 16:42:47;;;;;;;4.80;2.60;;;10.40;99.90;;;;;;2613609;54;20940;-71
2022/09/18 16:48:35;;;;;;;6.20;1.85;;;10.30;99.90;;;;;;2613701;54;20939;-72
2022/09/18 16:54:24;;;;;;;4.67;3.17;;;10.20;99.90;;;;;;2613375;54;20171;-73
2022/09/18 17:00:12;;;;;;;8.80;2.67;;;10.20;99.90;;;;;;2614246;54;20413;-73
2022/09/18 17:03:16;;;;;;;5.38;2.60;;;10.10;99.90;;;;;;2616067;31;20883;-74
2022/09/18 17:05:42;;;;;;;4.35;1.95;;;10.10;99.90;;;;;;2614437;54;20966;-71
2022/09/18 17:11:30;;;;;;;3.40;2.38;;;10.10;99.90;;;;;;2614767;54;20395;-73
2022/09/18 17:17:18;;;;;;;3.80;2.27;;;9.90;99.90;;;;;;2615587;54;20145;-73
2022/09/18 17:23:06;;;;;;;5.93;2.13;;;10.00;99.90;;;;;;2613502;54;20130;-71
2022/09/18 17:28:54;;;;;;;4.93;3.03;;;9.80;99.90;;;;;;2615224;54;20242;-71
2022/09/18 17:34:42;;;;;;;6.60;3.20;;;9.70;99.90;;;;;;2613494;54;20429;-72
2022/09/18 17:40:30;;;;;;;2.63;1.80;;;9.70;99.90;;;;;;2615136;54;21256;-73
2022/09/18 17:46:18;;;;;;;3.83;2.83;;;9.60;99.90;;;;;;2616200;39;20588;-74
2022/09/18 17:52:05;;;;;;;4.50;2.07;;;9.60;99.90;;;;;;2614780;54;20393;-73
2022/09/18 17:57:53;;;;;;;3.10;1.47;;;9.50;99.90;;;;;;2615797;54;20159;-72
2022/09/18 18:07:47;;;;;;;1.83;1.30;;;9.60;99.90;;;;;;2615232;54;20414;-72
2022/09/18 18:13:36;;;;;;;3.83;2.10;;;9.50;99.90;;;;;;2613696;54;20452;-73
2022/09/18 18:19:23;;;;;;;3.07;1.80;;;9.50;99.90;;;;;;2613480;54;20398;-72
2022/09/18 18:25:11;;;;;;;2.93;1.50;;;9.50;99.90;;;;;;2613607;54;20525;-71
2022/09/18 18:31:04;;;;;;;3.00;1.87;;;9.40;99.90;;;;;;2613284;54;20135;-71
2022/09/18 18:36:52;;;;;;;3.47;2.33;;;9.30;99.90;;;;;;2612840;54;20991;-73
2022/09/18 18:42:43;;;;;;;7.40;3.17;;;9.20;99.90;;;;;;2611391;54;20486;-71
2022/09/18 18:48:32;;;;;;;4.88;3.30;;;9.20;99.90;;;;;;2612937;54;20979;-72
2022/09/18 18:54:21;;;;;;;4.10;2.93;;;9.20;99.90;;;;;;2612927;54;20370;-71
2022/09/18 19:00:09;;;;;;;4.15;3.17;;;9.10;99.90;;;;;;2610723;54;20137;-73
2022/09/18 19:03:13;;;;;;;20.37;4.40;;;9.10;99.90;;;;;;2612658;54;20253;-73
2022/09/18 19:05:39;;;;;;;4.63;3.20;;;9.00;99.90;;;;;;2611792;54;20425;-72
2022/09/18 19:11:29;;;;;;;9.87;3.83;;;8.90;99.90;;;;;;2612547;54;20383;-71
2022/09/18 19:17:17;;;;;;;5.33;3.60;;;9.10;99.90;;;;;;2614163;54;20421;-71
2022/09/18 19:23:05;;;;;;;4.83;2.47;;;9.10;99.90;;;;;;2613336;54;20136;-73
2022/09/18 19:28:56;;;;;;;8.83;3.63;;;8.90;99.90;;;;;;2614173;54;20428;-73
2022/09/18 19:34:43;;;;;;;7.33;3.67;;;8.90;99.90;;;;;;2613455;54;20506;-72
2022/09/18 19:40:34;;;;;;;9.37;4.30;;;9.00;99.90;;;;;;2614932;31;20587;-71
2022/09/18 19:46:26;;;;;;;4.27;3.40;;;8.90;99.90;;;;;;2611625;54;20406;-72
2022/09/18 19:58:58;;;;;;;10.53;3.77;;;9.10;99.90;;;;;;2613256;54;20379;-71
2022/09/18 20:08:07;;;;;;;24.08;13.00;;;9.10;99.90;;;;;;2612590;39;20481;-71
2022/09/18 20:13:55;;;;;;;7.20;4.70;;;9.10;99.90;;;;;;2611498;54;20416;-71
2022/09/18 20:19:42;;;;;;;6.97;4.20;;;9.10;99.90;;;;;;2611957;54;20150;-71
2022/09/18 20:25:30;;;;;;;8.97;4.60;;;9.20;99.90;;;;;;2611916;39;20577;-71
2022/09/18 20:31:19;;;;;;;4.83;3.77;;;9.20;99.90;;;;;;2612649;54;20928;-73
2022/09/18 20:37:09;;;;;;;10.50;4.85;;;9.30;99.90;;;;;;2615165;39;20545;-71
2022/09/18 20:43:02;;;;;;;7.27;4.43;;;9.20;99.90;;;;;;2615710;54;20969;-74
2022/09/18 20:48:54;;;;;;;7.13;4.43;;;9.20;99.90;;;;;;2614864;54;20125;-72
2022/09/18 20:54:45;;;;;;;10.53;5.73;;;9.40;99.90;;;;;;2614766;54;20560;-71
2022/09/18 21:00:35;;;;;;;9.83;5.13;;;9.20;99.90;;;;;;2614080;54;20399;-71
2022/09/18 21:03:18;;;;;;;7.43;5.05;;;9.30;99.90;;;;;;2615140;46;20458;-72
2022/09/18 21:05:44;;;;;;;13.40;6.70;;;9.30;99.90;;;;;;2614731;54;20148;-73
2022/09/18 21:11:36;;;;;;;7.37;6.27;;;9.30;99.90;;;;;;2614302;54;20138;-71
2022/09/18 21:17:23;;;;;;;11.10;5.73;;;9.40;99.90;;;;;;2615973;54;20195;-72
2022/09/18 21:29:24;;;;;;;9.20;5.15;;;9.50;99.90;;;;;;2615721;54;20369;-72
2022/09/18 21:35:11;;;;;;;9.93;5.73;;;9.50;99.90;;;;;;2615204;54;20390;-72
2022/09/18 21:41:10;;;;;;;10.07;5.50;;;9.60;99.90;;;;;;2616030;54;20164;-71
2022/09/18 21:47:00;;;;;;;13.03;5.10;;;9.60;99.90;;;;;;2614521;54;20161;-72
2022/09/18 21:52:48;;;;;;;9.70;4.80;;;9.60;99.90;;;;;;2615795;54;20367;-72
2022/09/18 21:58:37;;;;;;;8.17;4.27;;;9.70;99.90;;;;;;2614384;54;20162;-72
2022/09/18 22:07:46;;;;;;;6.20;4.27;;;9.80;99.90;;;;;;2614597;54;20180;-73
2022/09/18 22:13:34;;;;;;;11.97;5.67;;;9.80;99.90;;;;;;2615133;54;20145;-73
2022/09/18 22:19:22;;;;;;;8.97;4.80;;;9.70;99.90;;;;;;2614901;54;20139;-71
2022/09/18 22:22:26;;;;;;;16.90;5.50;;;9.70;99.90;;;;;;2613278;54;20938;-72
2022/09/18 22:24:51;;;;;;;8.57;5.70;;;9.60;99.90;;;;;;2614031;54;20719;-71
2022/09/18 22:30:40;;;;;;;11.35;4.78;;;9.70;99.90;;;;;;2614951;54;20134;-71
2022/09/18 22:36:27;;;;;;;6.63;4.47;;;9.70;99.90;;;;;;2614309;54;20486;-71
2022/09/18 22:42:15;;;;;;;8.97;4.40;;;9.70;99.90;;;;;;2613723;54;20655;-72
2022/09/18 22:48:03;;;;;;;15.70;4.83;;;9.80;99.90;;;;;;2614453;39;20558;-73
2022/09/18 22:53:56;;;;;;;14.73;4.83;;;9.70;99.90;;;;;;2614033;54;20150;-72
2022/09/18 22:59:46;;;;;;;11.73;4.43;;;9.80;99.90;;;;;;2613850;46;20158;-71
2022/09/18 23:08:59;;;;;;;14.10;5.67;;;9.80;99.90;;;;;;2614207;54;20675;-71
2022/09/18 23:14:46;;;;;;;13.82;5.10;;;9.80;99.90;;;;;;2614541;54;20402;-72
2022/09/18 23:20:34;;;;;;;11.13;4.63;;;9.80;99.90;;;;;;2612528;54;20140;-73
2022/09/18 23:26:28;;;;;;;6.10;4.20;;;9.90;99.90;;;;;;2614659;54;20133;-71
2022/09/18 23:32:15;;;;;;;13.07;3.73;;;9.80;99.90;;;;;;2615247;54;20384;-71
2022/09/18 23:38:03;;;;;;;13.90;3.80;;;9.80;99.90;;;;;;2613736;54;20154;-71
2022/09/18 23:43:52;;;;;;;7.97;3.63;;;9.80;99.90;;;;;;2614693;54;20154;-71
2022/09/18 23:49:40;;;;;;;9.13;3.10;;;9.80;99.90;;;;;;2615451;54;20400;-71
2022/09/18 23:55:28;;;;;;;12.15;3.05;;;9.80;99.90;;;;;;2613872;54;20234;-71
